createdAt,value
2019-03-04T00:01:06.854Z,2.77
2019-03-04T00:03:35.711Z,2.60
2019-03-04T00:06:04.888Z,3.67
2019-03-04T00:08:33.707Z,3.37
2019-03-04T00:11:02.665Z,2.67
2019-03-04T00:13:31.557Z,2.70
2019-03-04T00:16:00.523Z,2.57
2019-03-04T00:18:29.486Z,2.47
2019-03-04T00:20:58.306Z,2.40
2019-03-04T00:23:27.193Z,2.33
2019-03-04T00:25:56.037Z,2.47
2019-03-04T00:28:24.829Z,2.40
2019-03-04T00:30:53.878Z,2.97
2019-03-04T00:33:22.805Z,2.17
2019-03-04T00:35:51.612Z,2.13
2019-03-04T00:38:20.709Z,2.20
2019-03-04T00:40:49.568Z,3.00
2019-03-04T00:43:18.366Z,2.70
2019-03-04T00:45:47.195Z,2.53
2019-03-04T00:48:16.165Z,2.83
2019-03-04T00:50:45.561Z,3.40
2019-03-04T00:53:14.371Z,2.53
2019-03-04T00:55:43.183Z,2.30
2019-03-04T00:58:12.024Z,2.97
2019-03-04T01:00:40.918Z,2.60
2019-03-04T01:03:09.830Z,2.80
2019-03-04T01:05:38.655Z,2.60
2019-03-04T01:08:07.598Z,1.97
2019-03-04T01:10:36.538Z,2.47
2019-03-04T01:13:05.533Z,2.27
2019-03-04T01:15:34.458Z,2.43
2019-03-04T01:18:03.549Z,2.10
2019-03-04T01:20:32.447Z,3.33
2019-03-04T01:23:01.341Z,2.33
2019-03-04T01:25:30.301Z,2.40
2019-03-04T01:27:59.202Z,2.23
2019-03-04T01:30:28.183Z,2.23
2019-03-04T01:32:57.018Z,2.97
2019-03-04T01:35:25.895Z,1.83
2019-03-04T01:37:54.801Z,2.27
2019-03-04T01:40:23.798Z,1.77
2019-03-04T01:42:52.793Z,2.00
2019-03-04T01:45:21.765Z,2.07
2019-03-04T01:47:50.709Z,1.80
2019-03-04T01:50:19.693Z,2.10
2019-03-04T01:52:48.669Z,1.90
2019-03-04T01:55:17.948Z,2.20
2019-03-04T01:57:46.837Z,2.23
2019-03-04T02:00:17.370Z,1.57
2019-03-04T02:02:46.262Z,2.00
2019-03-04T02:05:15.506Z,1.33
2019-03-04T02:07:44.337Z,1.63
2019-03-04T02:10:15.087Z,1.97
2019-03-04T02:12:44.308Z,1.33
2019-03-04T02:15:15.062Z,2.13
2019-03-04T02:17:43.931Z,1.70
2019-03-04T02:20:13.994Z,2.13
2019-03-04T02:22:42.883Z,2.53
2019-03-04T02:25:13.701Z,2.03
2019-03-04T02:27:48.692Z,2.40
2019-03-04T02:30:28.278Z,1.87
2019-03-04T02:32:57.135Z,2.20
2019-03-04T02:35:26.143Z,1.80
2019-03-04T02:37:55.008Z,2.27
2019-03-04T02:40:23.868Z,1.87
2019-03-04T02:42:52.742Z,2.10
2019-03-04T02:45:21.734Z,1.97
2019-03-04T02:47:50.547Z,1.40
2019-03-04T02:50:19.561Z,2.10
2019-03-04T02:52:48.455Z,2.83
2019-03-04T02:55:17.482Z,1.53
2019-03-04T02:57:46.354Z,1.27
2019-03-04T03:00:16.274Z,1.80
2019-03-04T03:02:45.262Z,1.70
2019-03-04T03:05:14.222Z,2.10
2019-03-04T03:07:43.053Z,1.80
2019-03-04T03:10:12.072Z,1.70
2019-03-04T03:12:40.894Z,1.60
2019-03-04T03:15:10.481Z,1.83
2019-03-04T03:17:39.377Z,1.57
2019-03-04T03:20:09.135Z,1.60
2019-03-04T03:22:38.017Z,1.50
2019-03-04T03:25:07.514Z,1.60
2019-03-04T03:27:36.410Z,1.53
2019-03-04T03:30:06.628Z,1.83
2019-03-04T03:32:35.470Z,1.70
2019-03-04T03:35:08.116Z,1.10
2019-03-04T03:37:35.353Z,1.40
2019-03-04T03:40:05.731Z,1.30
2019-03-04T03:42:34.786Z,1.73
2019-03-04T03:45:04.072Z,1.30
2019-03-04T03:47:32.876Z,1.40
2019-03-04T03:50:01.714Z,1.40
2019-03-04T03:52:30.553Z,1.83
2019-03-04T03:54:59.374Z,1.60
2019-03-04T03:57:28.322Z,1.30
2019-03-04T03:59:57.233Z,1.23
2019-03-04T04:02:26.120Z,1.40
2019-03-04T04:04:54.995Z,2.13
2019-03-04T04:07:23.831Z,1.50
2019-03-04T04:09:52.896Z,1.57
2019-03-04T04:12:21.740Z,1.40
2019-03-04T04:14:50.558Z,1.80
2019-03-04T04:17:19.373Z,1.13
2019-03-04T04:19:48.353Z,1.30
2019-03-04T04:22:17.286Z,1.33
2019-03-04T04:24:46.122Z,1.63
2019-03-04T04:27:14.945Z,1.43
2019-03-04T04:29:43.927Z,1.10
2019-03-04T04:32:12.767Z,1.20
2019-03-04T04:34:41.571Z,1.50
2019-03-04T04:37:10.536Z,1.10
2019-03-04T04:39:39.451Z,1.90
2019-03-04T04:42:08.428Z,1.57
2019-03-04T04:44:37.440Z,1.90
2019-03-04T04:47:08.929Z,1.50
2019-03-04T04:49:37.816Z,1.73
2019-03-04T04:52:06.711Z,1.10
2019-03-04T04:54:35.543Z,1.60
2019-03-04T04:57:04.518Z,1.13
2019-03-04T04:59:33.423Z,1.67
2019-03-04T05:02:02.377Z,1.20
2019-03-04T05:04:31.594Z,1.93
2019-03-04T05:07:00.517Z,1.00
2019-03-04T05:09:29.421Z,1.60
2019-03-04T05:11:59.763Z,0.93
2019-03-04T05:14:28.805Z,1.10
2019-03-04T05:16:57.859Z,1.40
2019-03-04T05:19:26.773Z,1.20
2019-03-04T05:21:55.611Z,2.07
2019-03-04T05:24:24.487Z,1.03
2019-03-04T05:26:53.383Z,1.67
2019-03-04T05:29:22.263Z,2.27
2019-03-04T05:31:51.074Z,1.83
2019-03-04T05:34:19.958Z,1.30
2019-03-04T05:36:48.806Z,1.77
2019-03-04T05:39:17.630Z,1.73
2019-03-04T05:41:46.498Z,2.10
2019-03-04T05:44:15.393Z,1.97
2019-03-04T05:46:44.362Z,2.17
2019-03-04T05:49:13.175Z,1.63
2019-03-04T05:51:41.992Z,2.27
2019-03-04T05:54:10.942Z,1.57
2019-03-04T05:56:39.743Z,3.17
2019-03-04T05:59:08.815Z,2.07
2019-03-04T06:01:39.754Z,1.63
2019-03-04T06:04:10.411Z,1.20
2019-03-04T06:06:58.469Z,1.60
2019-03-04T06:09:27.448Z,1.53
2019-03-04T06:11:56.369Z,1.97
2019-03-04T06:14:25.261Z,1.30
2019-03-04T06:16:54.333Z,1.57
2019-03-04T06:19:23.413Z,1.70
2019-03-04T06:21:52.319Z,1.20
2019-03-04T06:24:21.254Z,1.10
2019-03-04T06:26:50.170Z,1.83
2019-03-04T06:29:19.078Z,2.00
2019-03-04T06:31:48.071Z,2.03
2019-03-04T06:34:17.089Z,2.30
2019-03-04T06:36:45.999Z,2.00
2019-03-04T06:39:14.823Z,2.27
2019-03-04T06:41:43.722Z,1.90
2019-03-04T06:44:12.561Z,2.40
2019-03-04T06:46:41.369Z,2.10
2019-03-04T06:49:10.186Z,1.93
2019-03-04T06:51:41.184Z,2.50
2019-03-04T06:54:33.942Z,1.80
2019-03-04T06:57:09.611Z,2.27
2019-03-04T07:00:14.421Z,2.97
2019-03-04T07:02:43.406Z,4.27
2019-03-04T07:05:45.955Z,2.50
2019-03-04T07:08:53.193Z,2.83
2019-03-04T07:11:22.183Z,2.77
2019-03-04T07:13:50.986Z,2.60
2019-03-04T07:16:22.198Z,2.47
2019-03-04T07:18:50.769Z,2.60
2019-03-04T07:21:19.683Z,2.40
2019-03-04T07:23:48.554Z,2.60
2019-03-04T07:26:17.511Z,2.07
2019-03-04T07:28:46.377Z,2.70
2019-03-04T07:31:15.198Z,2.30
2019-03-04T07:33:44.112Z,2.03
2019-03-04T07:36:13.006Z,2.00
2019-03-04T07:39:02.128Z,1.47
2019-03-04T07:41:33.031Z,2.03
2019-03-04T07:44:02.025Z,1.97
2019-03-04T07:46:30.974Z,1.97
2019-03-04T07:48:59.795Z,1.17
2019-03-04T07:51:29.594Z,1.30
2019-03-04T07:53:58.430Z,1.20
2019-03-04T07:56:27.351Z,1.40
2019-03-04T07:58:56.183Z,1.63
2019-03-04T08:01:25.016Z,1.20
2019-03-04T08:03:53.923Z,1.20
2019-03-04T08:06:22.988Z,1.37
2019-03-04T08:09:47.953Z,1.20
2019-03-04T08:12:40.990Z,0.87
2019-03-04T08:15:10.786Z,1.43
2019-03-04T08:17:39.769Z,1.10
2019-03-04T08:20:10.861Z,1.10
2019-03-04T08:22:39.908Z,1.50
2019-03-04T08:25:11.666Z,1.37
2019-03-04T08:27:40.728Z,1.20
2019-03-04T08:30:13.250Z,1.00
2019-03-04T08:32:42.369Z,1.20
2019-03-04T08:35:11.562Z,1.00
2019-03-04T08:37:40.695Z,1.00
2019-03-04T08:40:10.531Z,1.20
2019-03-04T08:42:39.632Z,1.00
2019-03-04T08:45:09.487Z,1.13
2019-03-04T08:47:38.397Z,1.13
2019-03-04T08:50:08.608Z,0.90
2019-03-04T08:52:37.610Z,0.97
2019-03-04T08:55:07.270Z,0.80
2019-03-04T08:57:36.414Z,1.07
2019-03-04T09:00:07.611Z,1.40
2019-03-04T09:02:36.473Z,1.37
2019-03-04T09:05:06.315Z,0.80
2019-03-04T09:07:35.245Z,1.53
2019-03-04T09:10:05.341Z,1.50
2019-03-04T09:12:35.966Z,1.83
2019-03-04T09:15:05.810Z,1.17
2019-03-04T09:17:34.730Z,1.20
2019-03-04T09:20:04.512Z,0.97
2019-03-04T09:22:33.491Z,1.47
2019-03-04T09:25:02.315Z,0.80
2019-03-04T09:27:31.358Z,1.87
2019-03-04T09:30:00.352Z,1.60
2019-03-04T09:32:29.252Z,1.00
2019-03-04T09:34:58.245Z,1.70
2019-03-04T09:37:27.234Z,1.17
2019-03-04T09:39:56.156Z,1.00
2019-03-04T09:42:27.046Z,1.40
2019-03-04T09:44:55.958Z,1.80
2019-03-04T09:47:24.909Z,2.00
2019-03-04T09:49:53.795Z,1.60
2019-03-04T09:52:22.652Z,1.90
2019-03-04T09:54:51.885Z,1.37
2019-03-04T09:57:20.784Z,1.87
2019-03-04T09:59:49.618Z,1.47
2019-03-04T10:02:29.139Z,1.23
2019-03-04T10:05:25.706Z,1.80
2019-03-04T10:08:08.421Z,1.30
2019-03-04T10:10:46.198Z,2.20
2019-03-04T10:14:08.666Z,2.27
2019-03-04T10:17:20.919Z,2.47
2019-03-04T10:21:01.163Z,1.37
2019-03-04T10:24:04.449Z,1.90
2019-03-04T10:27:10.336Z,1.73
2019-03-04T10:30:38.254Z,2.03
2019-03-04T10:33:57.046Z,2.20
2019-03-04T10:37:06.288Z,1.90
2019-03-04T10:39:52.053Z,2.80
2019-03-04T10:43:06.693Z,1.90
2019-03-04T10:46:11.849Z,2.87
2019-03-04T10:48:40.804Z,2.60
2019-03-04T10:51:09.650Z,2.00
2019-03-04T10:53:38.473Z,2.30
2019-03-04T10:56:07.419Z,2.37
2019-03-04T10:58:36.490Z,2.60
2019-03-04T11:01:05.813Z,2.30
2019-03-04T11:03:34.859Z,2.50
2019-03-04T11:06:03.810Z,3.00
2019-03-04T11:08:32.869Z,2.10
2019-03-04T11:11:01.842Z,2.43
2019-03-04T11:13:30.790Z,3.17
2019-03-04T11:15:59.686Z,2.97
2019-03-04T11:18:28.593Z,3.10
2019-03-04T11:20:57.491Z,2.13
2019-03-04T11:23:27.658Z,2.93
2019-03-04T11:25:56.549Z,3.27
2019-03-04T11:28:25.779Z,2.67
2019-03-04T11:30:54.681Z,2.60
2019-03-04T11:33:23.586Z,3.30
2019-03-04T11:35:52.573Z,2.80
2019-03-04T11:38:38.938Z,2.47
2019-03-04T11:41:09.085Z,2.80
2019-03-04T11:43:38.099Z,2.73
2019-03-04T11:46:07.001Z,2.93
2019-03-04T11:48:35.997Z,2.63
2019-03-04T11:51:05.397Z,2.53
2019-03-04T11:53:34.345Z,2.83
2019-03-04T11:56:03.462Z,3.17
2019-03-04T11:58:32.301Z,2.20
2019-03-04T12:01:26.171Z,2.93
2019-03-04T12:03:55.681Z,2.63
2019-03-04T12:06:24.587Z,2.33
2019-03-04T12:08:53.500Z,3.17
2019-03-04T12:11:22.390Z,2.30
2019-03-04T12:13:51.235Z,2.63
2019-03-04T12:16:20.147Z,3.30
2019-03-04T12:18:49.218Z,2.60
2019-03-04T12:21:18.250Z,4.07
2019-03-04T12:23:47.153Z,3.07
2019-03-04T12:26:18.394Z,3.00
2019-03-04T12:28:46.793Z,3.10
2019-03-04T12:31:15.719Z,2.63
2019-03-04T12:33:44.761Z,3.60
2019-03-04T12:36:13.670Z,2.60
2019-03-04T12:38:42.589Z,2.87
2019-03-04T12:41:11.561Z,2.97
2019-03-04T12:43:40.426Z,2.57
2019-03-04T12:46:09.461Z,2.93
2019-03-04T12:48:38.349Z,3.00
2019-03-04T12:51:07.400Z,2.70
2019-03-04T12:53:37.524Z,2.27
2019-03-04T12:56:06.765Z,3.27
2019-03-04T12:58:35.859Z,2.70
2019-03-04T13:01:05.039Z,2.83
2019-03-04T13:03:34.070Z,2.27
2019-03-04T13:06:03.034Z,2.03
2019-03-04T13:08:31.957Z,2.37
2019-03-04T13:11:00.912Z,2.77
2019-03-04T13:13:29.908Z,1.97
2019-03-04T13:16:01.006Z,2.13
2019-03-04T13:18:29.980Z,2.93
2019-03-04T13:20:58.826Z,2.57
2019-03-04T13:23:27.777Z,2.80
2019-03-04T13:25:56.731Z,2.40
2019-03-04T13:28:25.630Z,2.87
2019-03-04T13:30:54.579Z,2.17
2019-03-04T13:33:23.690Z,1.93
2019-03-04T13:35:52.642Z,2.23
2019-03-04T13:38:21.664Z,2.10
2019-03-04T13:40:50.611Z,1.90
2019-03-04T13:43:19.651Z,2.43
2019-03-04T13:45:48.654Z,2.23
2019-03-04T13:48:17.522Z,2.53
2019-03-04T13:50:46.493Z,2.87
2019-03-04T13:53:15.485Z,2.80
2019-03-04T13:55:44.432Z,2.60
2019-03-04T13:58:13.383Z,1.77
2019-03-04T14:00:42.431Z,2.20
2019-03-04T14:03:12.473Z,3.23
2019-03-04T14:05:41.485Z,2.50
2019-03-04T14:08:10.517Z,2.43
2019-03-04T14:10:39.459Z,2.20
2019-03-04T14:13:08.505Z,1.90
2019-03-04T14:15:38.664Z,2.60
2019-03-04T14:18:07.706Z,1.90
2019-03-04T14:20:36.773Z,2.10
2019-03-04T14:23:05.800Z,2.70
2019-03-04T14:25:34.846Z,2.47
2019-03-04T14:28:03.759Z,1.70
2019-03-04T14:30:32.784Z,1.80
2019-03-04T14:33:01.738Z,2.73
2019-03-04T14:35:30.754Z,3.77
2019-03-04T14:37:59.653Z,2.10
2019-03-04T14:40:28.622Z,2.20
2019-03-04T14:42:57.534Z,2.37
2019-03-04T14:45:26.533Z,2.57
2019-03-04T14:47:55.552Z,3.10
2019-03-04T14:50:24.557Z,2.00
2019-03-04T14:52:53.577Z,1.80
2019-03-04T14:55:22.600Z,2.03
2019-03-04T14:57:51.596Z,2.03
2019-03-04T15:00:26.303Z,2.37
2019-03-04T15:02:55.224Z,2.63
2019-03-04T15:05:24.177Z,2.30
2019-03-04T15:07:53.158Z,2.93
2019-03-04T15:10:22.162Z,2.17
2019-03-04T15:12:51.098Z,2.80
2019-03-04T15:15:20.069Z,2.93
2019-03-04T15:17:48.986Z,2.40
2019-03-04T15:20:19.586Z,2.40
2019-03-04T15:22:48.510Z,3.03
2019-03-04T15:25:21.136Z,2.50
2019-03-04T15:27:50.103Z,1.97
2019-03-04T15:30:19.177Z,2.07
2019-03-04T15:32:48.067Z,2.50
2019-03-04T15:35:17.036Z,2.33
2019-03-04T15:37:45.864Z,2.43
2019-03-04T15:40:14.870Z,2.60
2019-03-04T15:42:43.777Z,2.33
2019-03-04T15:45:13.298Z,2.30
2019-03-04T15:47:42.301Z,2.20
2019-03-04T15:50:11.310Z,2.50
2019-03-04T15:52:40.235Z,2.10
2019-03-04T15:55:11.770Z,1.93
2019-03-04T15:57:40.797Z,2.70
2019-03-04T16:00:11.198Z,1.83
2019-03-04T16:02:41.158Z,2.70
2019-03-04T16:05:10.610Z,2.60
2019-03-04T16:07:39.746Z,2.30
2019-03-04T16:10:11.225Z,2.03
2019-03-04T16:12:40.843Z,2.60
2019-03-04T16:15:11.857Z,2.30
2019-03-04T16:17:41.242Z,2.60
2019-03-04T16:20:16.060Z,2.40
2019-03-04T16:22:42.370Z,2.80
2019-03-04T16:25:11.522Z,2.30
2019-03-04T16:27:40.635Z,2.07
2019-03-04T16:30:12.686Z,2.83
2019-03-04T16:32:41.591Z,2.63
2019-03-04T16:35:10.544Z,1.83
2019-03-04T16:37:39.458Z,2.93
2019-03-04T16:40:11.345Z,1.90
2019-03-04T16:42:40.473Z,2.33
2019-03-04T16:45:10.626Z,2.33
2019-03-04T16:47:39.730Z,1.97
2019-03-04T16:50:10.882Z,2.20
2019-03-04T16:52:39.963Z,2.37
2019-03-04T16:55:10.472Z,2.27
2019-03-04T16:57:39.465Z,2.27
2019-03-04T17:00:10.589Z,2.00
2019-03-04T17:02:39.519Z,2.40
2019-03-04T17:05:10.162Z,2.13
2019-03-04T17:07:39.149Z,3.00
2019-03-04T17:10:09.898Z,2.43
2019-03-04T17:12:39.046Z,2.50
2019-03-04T17:15:09.501Z,2.40
2019-03-04T17:17:38.627Z,3.37
2019-03-04T17:20:09.042Z,2.03
2019-03-04T17:22:40.260Z,3.20
2019-03-04T17:25:10.393Z,3.40
2019-03-04T17:27:41.409Z,3.12
2019-03-04T17:30:12.186Z,2.90
2019-03-04T17:32:41.681Z,3.23
2019-03-04T17:35:11.289Z,2.60
2019-03-04T17:37:40.443Z,2.75
2019-03-04T17:40:10.919Z,2.57
2019-03-04T17:42:39.881Z,10.27
2019-03-04T17:45:10.722Z,3.90
2019-03-04T17:47:39.642Z,3.30
2019-03-04T17:50:10.298Z,5.20
2019-03-04T17:52:39.262Z,3.10
2019-03-04T17:55:09.674Z,4.40
2019-03-04T17:57:39.165Z,2.80
2019-03-04T18:00:10.026Z,9.70
2019-03-04T18:02:38.929Z,107.93
2019-03-04T18:05:08.101Z,61.55
2019-03-04T18:07:37.489Z,47.97
2019-03-04T18:10:08.650Z,60.73
2019-03-04T18:12:37.686Z,51.60
2019-03-04T18:15:09.870Z,51.50
2019-03-04T18:17:38.836Z,55.13
2019-03-04T18:20:09.358Z,54.13
2019-03-04T18:22:38.493Z,44.57
2019-03-04T18:25:17.498Z,46.87
2019-03-04T18:27:50.460Z,41.23
2019-03-04T18:30:56.014Z,33.40
2019-03-04T18:33:49.911Z,28.83
2019-03-04T18:36:44.477Z,20.63
2019-03-04T18:39:59.635Z,21.87
2019-03-04T18:43:22.183Z,19.07
2019-03-04T18:46:16.882Z,17.47
2019-03-04T18:48:56.122Z,15.63
2019-03-04T18:51:25.509Z,12.77
2019-03-04T18:53:56.318Z,10.60
2019-03-04T18:56:25.402Z,9.23
2019-03-04T18:58:54.371Z,8.90
2019-03-04T19:01:23.479Z,6.50
2019-03-04T19:03:52.565Z,7.10
2019-03-04T19:06:21.489Z,5.37
2019-03-04T19:08:50.398Z,4.50
2019-03-04T19:11:19.406Z,4.70
2019-03-04T19:13:48.402Z,3.73
2019-03-04T19:16:17.408Z,4.00
2019-03-04T19:18:46.397Z,3.83
2019-03-04T19:21:15.391Z,3.13
2019-03-04T19:23:44.651Z,3.53
2019-03-04T19:26:13.972Z,2.50
2019-03-04T19:28:42.962Z,3.07
2019-03-04T19:31:11.982Z,2.50
2019-03-04T19:33:40.917Z,2.40
2019-03-04T19:36:09.973Z,3.40
2019-03-04T19:38:38.920Z,3.13
2019-03-04T19:41:08.121Z,2.57
2019-03-04T19:43:37.074Z,2.03
2019-03-04T19:46:06.134Z,1.83
2019-03-04T19:48:35.103Z,3.27
2019-03-04T19:51:04.105Z,2.57
2019-03-04T19:53:33.165Z,2.17
2019-03-04T19:56:02.097Z,2.57
2019-03-04T19:58:31.177Z,3.07
2019-03-04T20:01:00.242Z,1.70
2019-03-04T20:03:29.190Z,2.10
2019-03-04T20:05:58.189Z,1.67
2019-03-04T20:08:27.206Z,1.77
2019-03-04T20:10:56.271Z,1.80
2019-03-04T20:13:25.426Z,1.20
2019-03-04T20:15:54.867Z,1.10
2019-03-04T20:18:23.958Z,2.20
2019-03-04T20:20:52.834Z,2.93
2019-03-04T20:23:21.847Z,1.53
2019-03-04T20:25:52.484Z,2.60
2019-03-04T20:28:21.365Z,2.03
2019-03-04T20:30:50.421Z,1.90
2019-03-04T20:33:21.468Z,2.60
2019-03-04T20:35:50.802Z,1.87
2019-03-04T20:38:22.379Z,1.63
2019-03-04T20:40:51.265Z,2.20
2019-03-04T20:43:20.254Z,2.10
2019-03-04T20:45:49.320Z,1.77
2019-03-04T20:48:18.284Z,2.47
2019-03-04T20:50:47.227Z,1.67
2019-03-04T20:53:16.210Z,1.67
2019-03-04T20:55:45.052Z,2.43
2019-03-04T20:58:14.047Z,1.93
2019-03-04T21:00:43.613Z,2.20
2019-03-04T21:03:12.756Z,2.17
2019-03-04T21:05:41.874Z,2.40
2019-03-04T21:08:10.921Z,2.00
2019-03-04T21:10:39.905Z,2.00
2019-03-04T21:13:14.973Z,2.60
2019-03-04T21:15:44.885Z,2.40
2019-03-04T21:18:14.165Z,2.23
2019-03-04T21:20:43.444Z,2.63
2019-03-04T21:23:12.597Z,2.80
2019-03-04T21:25:53.400Z,2.90
2019-03-04T21:31:16.198Z,2.60
2019-03-04T21:34:27.886Z,3.27
2019-03-04T21:37:14.724Z,3.47
2019-03-04T21:39:48.208Z,2.50
2019-03-04T21:42:46.930Z,2.33
2019-03-04T21:46:11.721Z,2.80
2019-03-04T21:48:56.580Z,4.13
2019-03-04T21:51:40.414Z,3.53
2019-03-04T21:54:09.784Z,3.13
2019-03-04T21:57:02.502Z,3.63
2019-03-04T21:59:31.694Z,2.90
2019-03-04T22:02:33.796Z,3.37
2019-03-04T22:05:06.277Z,3.17
2019-03-04T22:07:37.234Z,3.30
2019-03-04T22:10:07.177Z,3.20
2019-03-04T22:12:36.166Z,3.53
2019-03-04T22:15:05.626Z,3.53
2019-03-04T22:17:34.529Z,3.50
2019-03-04T22:20:03.534Z,2.70
2019-03-04T22:22:32.532Z,3.93
2019-03-04T22:25:01.491Z,3.93
2019-03-04T22:27:30.329Z,3.70
2019-03-04T22:29:59.168Z,3.50
2019-03-04T22:32:28.048Z,3.77
2019-03-04T22:34:56.854Z,3.97
2019-03-04T22:37:25.805Z,3.40
2019-03-04T22:39:54.653Z,3.80
2019-03-04T22:42:23.582Z,3.63
2019-03-04T22:44:52.739Z,5.37
2019-03-04T22:47:21.569Z,4.00
2019-03-04T22:49:50.460Z,4.57
2019-03-04T22:52:19.333Z,4.20
2019-03-04T22:54:48.264Z,3.70
2019-03-04T22:57:17.278Z,3.10
2019-03-04T22:59:46.235Z,4.40
2019-03-04T23:02:18.068Z,4.50
2019-03-04T23:05:02.958Z,3.27
2019-03-04T23:07:58.493Z,2.80
2019-03-04T23:10:40.042Z,3.50
2019-03-04T23:13:36.473Z,3.17
2019-03-04T23:16:06.625Z,3.60
2019-03-04T23:18:35.522Z,3.70
2019-03-04T23:21:06.435Z,3.97
2019-03-04T23:23:35.201Z,4.20
2019-03-04T23:26:05.299Z,3.97
2019-03-04T23:28:34.571Z,4.40
2019-03-04T23:31:03.910Z,3.60
2019-03-04T23:33:33.647Z,3.73
2019-03-04T23:36:02.793Z,3.87
2019-03-04T23:38:31.622Z,4.23
2019-03-04T23:41:00.406Z,3.10
2019-03-04T23:43:29.375Z,3.70
2019-03-04T23:45:58.387Z,3.80
2019-03-04T23:48:27.299Z,3.37
2019-03-04T23:50:56.300Z,3.37
2019-03-04T23:53:25.225Z,3.03
2019-03-04T23:55:54.062Z,3.20
2019-03-04T23:58:22.985Z,3.43
